sensor_id;sensor_type;location;lat;lon;timestamp;temperature;humidity
68433;DHT22;55412;51.350;17.056;2022-09-20T00:00:50;12.00;74.10
68433;DHT22;55412;51.350;17.056;2022-09-20T00:03:17;11.90;74.40
68433;DHT22;55412;51.350;17.056;2022-09-20T00:05:44;11.90;74.30
68433;DHT22;55412;51.350;17.056;2022-09-20T00:08:13;11.90;74.40
68433;DHT22;55412;51.350;17.056;2022-09-20T00:10:41;11.90;74.50
68433;DHT22;55412;51.350;17.056;2022-09-20T00:13:10;11.90;74.10
68433;DHT22;55412;51.350;17.056;2022-09-20T00:15:43;11.80;74.20
68433;DHT22;55412;51.350;17.056;2022-09-20T00:18:11;11.80;74.40
68433;DHT22;55412;51.350;17.056;2022-09-20T00:20:45;11.80;74.60
68433;DHT22;55412;51.350;17.056;2022-09-20T00:23:12;11.80;74.60
68433;DHT22;55412;51.350;17.056;2022-09-20T00:25:38;11.80;74.60
68433;DHT22;55412;51.350;17.056;2022-09-20T00:28:04;11.80;74.90
68433;DHT22;55412;51.350;17.056;2022-09-20T00:30:32;11.70;75.00
68433;DHT22;55412;51.350;17.056;2022-09-20T00:32:59;11.70;75.20
68433;DHT22;55412;51.350;17.056;2022-09-20T00:35:26;11.70;75.20
68433;DHT22;55412;51.350;17.056;2022-09-20T00:37:54;11.70;75.40
68433;DHT22;55412;51.350;17.056;2022-09-20T00:40:21;11.70;75.50
68433;DHT22;55412;51.350;17.056;2022-09-20T00:42:49;11.70;75.70
68433;DHT22;55412;51.350;17.056;2022-09-20T00:45:20;11.70;75.90
68433;DHT22;55412;51.350;17.056;2022-09-20T00:48:20;11.70;75.80
68433;DHT22;55412;51.350;17.056;2022-09-20T00:50:58;11.70;75.90
68433;DHT22;55412;51.350;17.056;2022-09-20T00:53:39;11.80;75.80
68433;DHT22;55412;51.350;17.056;2022-09-20T00:56:32;11.80;75.60
68433;DHT22;55412;51.350;17.056;2022-09-20T00:59:13;11.80;76.00
68433;DHT22;55412;51.350;17.056;2022-09-20T01:01:43;11.80;75.80
68433;DHT22;55412;51.350;17.056;2022-09-20T01:04:12;11.80;75.70
68433;DHT22;55412;51.350;17.056;2022-09-20T01:06:42;11.80;75.50
68433;DHT22;55412;51.350;17.056;2022-09-20T01:09:09;11.80;75.40
68433;DHT22;55412;51.350;17.056;2022-09-20T01:11:36;11.80;75.20
68433;DHT22;55412;51.350;17.056;2022-09-20T01:14:03;11.80;75.50
68433;DHT22;55412;51.350;17.056;2022-09-20T01:16:30;11.80;75.30
68433;DHT22;55412;51.350;17.056;2022-09-20T01:19:00;11.80;75.40
68433;DHT22;55412;51.350;17.056;2022-09-20T01:21:29;11.80;75.40
68433;DHT22;55412;51.350;17.056;2022-09-20T01:24:25;11.80;75.40
68433;DHT22;55412;51.350;17.056;2022-09-20T01:30:30;11.70;75.10
68433;DHT22;55412;51.350;17.056;2022-09-20T01:35:49;11.70;75.20
68433;DHT22;55412;51.350;17.056;2022-09-20T01:41:49;11.80;75.70
68433;DHT22;55412;51.350;17.056;2022-09-20T02:11:12;11.70;74.80
68433;DHT22;55412;51.350;17.056;2022-09-20T02:13:43;11.70;74.90
68433;DHT22;55412;51.350;17.056;2022-09-20T02:16:40;11.60;75.00
68433;DHT22;55412;51.350;17.056;2022-09-20T02:19:25;11.60;75.00
68433;DHT22;55412;51.350;17.056;2022-09-20T02:22:41;11.60;75.00
68433;DHT22;55412;51.350;17.056;2022-09-20T02:34:18;11.60;74.80
68433;DHT22;55412;51.350;17.056;2022-09-20T02:53:04;11.50;75.10
68433;DHT22;55412;51.350;17.056;2022-09-20T02:58:58;11.50;75.50
68433;DHT22;55412;51.350;17.056;2022-09-20T03:01:45;11.50;75.60
68433;DHT22;55412;51.350;17.056;2022-09-20T03:16:09;11.50;76.30
68433;DHT22;55412;51.350;17.056;2022-09-20T03:19:12;11.50;76.00
68433;DHT22;55412;51.350;17.056;2022-09-20T03:24:42;11.50;76.10
68433;DHT22;55412;51.350;17.056;2022-09-20T03:27:42;11.50;75.90
68433;DHT22;55412;51.350;17.056;2022-09-20T03:30:49;11.50;75.90
68433;DHT22;55412;51.350;17.056;2022-09-20T03:36:26;11.50;75.90
68433;DHT22;55412;51.350;17.056;2022-09-20T03:51:18;11.50;76.20
68433;DHT22;55412;51.350;17.056;2022-09-20T03:57:42;11.60;76.50
68433;DHT22;55412;51.350;17.056;2022-09-20T04:12:06;11.60;75.70
68433;DHT22;55412;51.350;17.056;2022-09-20T04:18:08;11.60;75.50
68433;DHT22;55412;51.350;17.056;2022-09-20T04:21:04;11.60;76.10
68433;DHT22;55412;51.350;17.056;2022-09-20T04:23:56;11.60;75.90
68433;DHT22;55412;51.350;17.056;2022-09-20T04:26:28;11.60;75.80
68433;DHT22;55412;51.350;17.056;2022-09-20T04:29:24;11.60;76.00
68433;DHT22;55412;51.350;17.056;2022-09-20T04:38:20;11.50;76.10
68433;DHT22;55412;51.350;17.056;2022-09-20T04:47:31;11.50;76.40
68433;DHT22;55412;51.350;17.056;2022-09-20T04:55:49;11.50;76.50
68433;DHT22;55412;51.350;17.056;2022-09-20T05:07:13;11.50;76.80
68433;DHT22;55412;51.350;17.056;2022-09-20T05:18:44;11.50;76.70
68433;DHT22;55412;51.350;17.056;2022-09-20T05:24:57;11.50;76.80
68433;DHT22;55412;51.350;17.056;2022-09-20T05:35:58;11.60;76.50
68433;DHT22;55412;51.350;17.056;2022-09-20T05:38:59;11.60;76.40
68433;DHT22;55412;51.350;17.056;2022-09-20T06:05:16;11.60;76.60
68433;DHT22;55412;51.350;17.056;2022-09-20T06:11:20;11.60;75.70
68433;DHT22;55412;51.350;17.056;2022-09-20T06:17:21;11.50;76.20
68433;DHT22;55412;51.350;17.056;2022-09-20T06:19:57;11.50;76.20
68433;DHT22;55412;51.350;17.056;2022-09-20T06:22:47;11.60;76.20
68433;DHT22;55412;51.350;17.056;2022-09-20T06:27:59;11.60;76.10
68433;DHT22;55412;51.350;17.056;2022-09-20T06:30:34;11.60;76.50
68433;DHT22;55412;51.350;17.056;2022-09-20T06:36:09;11.70;75.70
68433;DHT22;55412;51.350;17.056;2022-09-20T06:39:02;11.70;75.90
68433;DHT22;55412;51.350;17.056;2022-09-20T06:42:09;11.70;75.50
68433;DHT22;55412;51.350;17.056;2022-09-20T06:44:36;11.80;75.90
68433;DHT22;55412;51.350;17.056;2022-09-20T06:47:09;11.80;75.90
68433;DHT22;55412;51.350;17.056;2022-09-20T06:49:35;11.90;75.80
68433;DHT22;55412;51.350;17.056;2022-09-20T06:52:06;11.90;75.40
68433;DHT22;55412;51.350;17.056;2022-09-20T06:54:35;11.90;75.20
68433;DHT22;55412;51.350;17.056;2022-09-20T06:57:04;11.90;75.10
68433;DHT22;55412;51.350;17.056;2022-09-20T06:59:31;12.00;75.10
68433;DHT22;55412;51.350;17.056;2022-09-20T07:01:57;12.00;75.30
68433;DHT22;55412;51.350;17.056;2022-09-20T07:04:23;12.00;75.00
68433;DHT22;55412;51.350;17.056;2022-09-20T07:06:52;12.00;75.00
68433;DHT22;55412;51.350;17.056;2022-09-20T07:09:24;12.10;75.30
68433;DHT22;55412;51.350;17.056;2022-09-20T07:11:50;12.10;75.30
68433;DHT22;55412;51.350;17.056;2022-09-20T07:14:16;12.10;74.60
68433;DHT22;55412;51.350;17.056;2022-09-20T07:16:43;12.20;74.70
68433;DHT22;55412;51.350;17.056;2022-09-20T07:19:09;12.20;74.50
68433;DHT22;55412;51.350;17.056;2022-09-20T07:21:35;12.20;74.50
68433;DHT22;55412;51.350;17.056;2022-09-20T07:24:01;12.20;74.50
68433;DHT22;55412;51.350;17.056;2022-09-20T07:26:29;12.30;74.30
68433;DHT22;55412;51.350;17.056;2022-09-20T07:28:57;12.30;74.70
68433;DHT22;55412;51.350;17.056;2022-09-20T07:31:25;12.30;74.40
68433;DHT22;55412;51.350;17.056;2022-09-20T07:33:53;12.30;74.30
68433;DHT22;55412;51.350;17.056;2022-09-20T07:36:20;12.40;74.30
68433;DHT22;55412;51.350;17.056;2022-09-20T07:38:48;12.40;74.50
68433;DHT22;55412;51.350;17.056;2022-09-20T07:41:15;12.60;74.90
68433;DHT22;55412;51.350;17.056;2022-09-20T07:43:44;12.70;74.40
68433;DHT22;55412;51.350;17.056;2022-09-20T07:46:11;12.80;74.20
68433;DHT22;55412;51.350;17.056;2022-09-20T07:48:40;12.90;73.60
68433;DHT22;55412;51.350;17.056;2022-09-20T07:51:09;12.90;72.90
68433;DHT22;55412;51.350;17.056;2022-09-20T07:53:38;13.00;72.30
68433;DHT22;55412;51.350;17.056;2022-09-20T07:56:07;13.00;72.60
68433;DHT22;55412;51.350;17.056;2022-09-20T07:58:36;13.10;72.50
68433;DHT22;55412;51.350;17.056;2022-09-20T08:01:05;13.20;72.20
68433;DHT22;55412;51.350;17.056;2022-09-20T08:03:33;13.30;72.30
68433;DHT22;55412;51.350;17.056;2022-09-20T08:06:02;13.40;71.40
68433;DHT22;55412;51.350;17.056;2022-09-20T08:08:33;13.50;71.00
68433;DHT22;55412;51.350;17.056;2022-09-20T08:11:08;13.50;70.30
68433;DHT22;55412;51.350;17.056;2022-09-20T08:13:47;13.50;69.90
68433;DHT22;55412;51.350;17.056;2022-09-20T08:16:15;13.60;70.10
68433;DHT22;55412;51.350;17.056;2022-09-20T08:18:58;13.60;69.20
68433;DHT22;55412;51.350;17.056;2022-09-20T08:21:27;13.50;69.50
68433;DHT22;55412;51.350;17.056;2022-09-20T08:23:56;13.50;69.90
68433;DHT22;55412;51.350;17.056;2022-09-20T08:26:23;13.60;71.10
68433;DHT22;55412;51.350;17.056;2022-09-20T08:28:52;13.60;70.20
68433;DHT22;55412;51.350;17.056;2022-09-20T08:31:25;13.60;70.10
68433;DHT22;55412;51.350;17.056;2022-09-20T08:33:53;13.70;70.40
68433;DHT22;55412;51.350;17.056;2022-09-20T08:36:24;13.70;69.60
68433;DHT22;55412;51.350;17.056;2022-09-20T08:38:51;13.80;69.60
68433;DHT22;55412;51.350;17.056;2022-09-20T08:41:30;13.80;69.40
68433;DHT22;55412;51.350;17.056;2022-09-20T08:44:14;13.80;68.90
68433;DHT22;55412;51.350;17.056;2022-09-20T08:46:47;13.70;68.60
68433;DHT22;55412;51.350;17.056;2022-09-20T08:49:25;13.60;69.00
68433;DHT22;55412;51.350;17.056;2022-09-20T08:51:53;13.60;69.50
68433;DHT22;55412;51.350;17.056;2022-09-20T08:54:25;13.60;69.40
68433;DHT22;55412;51.350;17.056;2022-09-20T08:56:51;13.70;69.70
68433;DHT22;55412;51.350;17.056;2022-09-20T08:59:20;13.70;69.50
68433;DHT22;55412;51.350;17.056;2022-09-20T09:01:48;13.60;69.90
68433;DHT22;55412;51.350;17.056;2022-09-20T09:04:21;13.70;69.80
68433;DHT22;55412;51.350;17.056;2022-09-20T09:06:50;13.70;70.10
68433;DHT22;55412;51.350;17.056;2022-09-20T09:09:25;13.80;69.60
68433;DHT22;55412;51.350;17.056;2022-09-20T09:11:53;13.80;70.00
68433;DHT22;55412;51.350;17.056;2022-09-20T09:14:28;13.90;70.20
68433;DHT22;55412;51.350;17.056;2022-09-20T09:17:19;13.90;69.40
68433;DHT22;55412;51.350;17.056;2022-09-20T09:19:59;13.90;69.40
68433;DHT22;55412;51.350;17.056;2022-09-20T09:22:42;13.90;69.80
68433;DHT22;55412;51.350;17.056;2022-09-20T09:25:22;13.90;68.40
68433;DHT22;55412;51.350;17.056;2022-09-20T09:28:13;13.80;68.10
68433;DHT22;55412;51.350;17.056;2022-09-20T09:30:44;13.70;68.50
68433;DHT22;55412;51.350;17.056;2022-09-20T09:38:34;13.60;69.10
68433;DHT22;55412;51.350;17.056;2022-09-20T09:41:28;13.60;69.10
68433;DHT22;55412;51.350;17.056;2022-09-20T09:44:03;13.50;69.10
68433;DHT22;55412;51.350;17.056;2022-09-20T09:46:37;13.50;69.10
68433;DHT22;55412;51.350;17.056;2022-09-20T09:49:16;13.50;69.20
68433;DHT22;55412;51.350;17.056;2022-09-20T10:00:13;13.90;69.50
68433;DHT22;55412;51.350;17.056;2022-09-20T10:17:02;15.20;68.20
68433;DHT22;55412;51.350;17.056;2022-09-20T10:25:44;15.80;64.40
68433;DHT22;55412;51.350;17.056;2022-09-20T10:31:22;15.90;63.90
68433;DHT22;55412;51.350;17.056;2022-09-20T10:34:37;15.90;63.90
68433;DHT22;55412;51.350;17.056;2022-09-20T10:40:26;16.10;62.80
68433;DHT22;55412;51.350;17.056;2022-09-20T10:43:26;16.20;63.60
68433;DHT22;55412;51.350;17.056;2022-09-20T10:46:07;16.20;62.70
68433;DHT22;55412;51.350;17.056;2022-09-20T10:49:17;16.20;62.10
68433;DHT22;55412;51.350;17.056;2022-09-20T10:57:57;16.20;62.60
68433;DHT22;55412;51.350;17.056;2022-09-20T11:07:10;16.00;61.70
68433;DHT22;55412;51.350;17.056;2022-09-20T11:09:50;15.90;62.00
68433;DHT22;55412;51.350;17.056;2022-09-20T11:12:37;15.80;61.90
68433;DHT22;55412;51.350;17.056;2022-09-20T11:15:25;15.80;63.60
68433;DHT22;55412;51.350;17.056;2022-09-20T11:18:10;15.80;64.50
68433;DHT22;55412;51.350;17.056;2022-09-20T11:20:55;15.90;64.50
68433;DHT22;55412;51.350;17.056;2022-09-20T11:24:16;16.00;64.20
68433;DHT22;55412;51.350;17.056;2022-09-20T11:26:47;16.20;63.30
68433;DHT22;55412;51.350;17.056;2022-09-20T11:29:52;16.30;64.00
68433;DHT22;55412;51.350;17.056;2022-09-20T11:32:33;16.20;63.60
68433;DHT22;55412;51.350;17.056;2022-09-20T11:35:24;16.10;64.40
68433;DHT22;55412;51.350;17.056;2022-09-20T11:38:09;16.00;64.50
68433;DHT22;55412;51.350;17.056;2022-09-20T11:40:43;15.90;64.80
68433;DHT22;55412;51.350;17.056;2022-09-20T11:43:13;15.80;65.50
68433;DHT22;55412;51.350;17.056;2022-09-20T11:45:41;15.80;65.80
68433;DHT22;55412;51.350;17.056;2022-09-20T11:48:34;15.80;66.20
68433;DHT22;55412;51.350;17.056;2022-09-20T11:51:38;15.80;66.00
68433;DHT22;55412;51.350;17.056;2022-09-20T11:54:50;15.80;66.90
68433;DHT22;55412;51.350;17.056;2022-09-20T11:57:29;15.80;67.00
68433;DHT22;55412;51.350;17.056;2022-09-20T11:59:57;15.80;66.80
68433;DHT22;55412;51.350;17.056;2022-09-20T12:05:04;15.80;66.00
68433;DHT22;55412;51.350;17.056;2022-09-20T12:07:40;15.80;66.50
68433;DHT22;55412;51.350;17.056;2022-09-20T12:10:38;15.80;67.10
68433;DHT22;55412;51.350;17.056;2022-09-20T12:13:23;15.90;65.10
68433;DHT22;55412;51.350;17.056;2022-09-20T12:16:14;16.00;65.10
68433;DHT22;55412;51.350;17.056;2022-09-20T12:21:20;16.00;63.80
68433;DHT22;55412;51.350;17.056;2022-09-20T12:29:07;16.30;64.90
68433;DHT22;55412;51.350;17.056;2022-09-20T12:32:30;16.40;63.50
68433;DHT22;55412;51.350;17.056;2022-09-20T12:38:22;16.70;61.40
68433;DHT22;55412;51.350;17.056;2022-09-20T12:41:07;16.80;62.10
68433;DHT22;55412;51.350;17.056;2022-09-20T12:43:46;16.80;61.90
68433;DHT22;55412;51.350;17.056;2022-09-20T12:46:43;16.90;61.40
68433;DHT22;55412;51.350;17.056;2022-09-20T12:52:34;17.00;60.50
68433;DHT22;55412;51.350;17.056;2022-09-20T12:58:01;17.10;60.90
68433;DHT22;55412;51.350;17.056;2022-09-20T13:03:25;17.10;60.70
68433;DHT22;55412;51.350;17.056;2022-09-20T13:09:05;17.10;60.30
68433;DHT22;55412;51.350;17.056;2022-09-20T13:11:41;17.20;59.30
68433;DHT22;55412;51.350;17.056;2022-09-20T13:14:24;17.20;58.90
68433;DHT22;55412;51.350;17.056;2022-09-20T13:17:05;17.20;58.80
68433;DHT22;55412;51.350;17.056;2022-09-20T13:19:46;17.20;58.60
68433;DHT22;55412;51.350;17.056;2022-09-20T13:22:29;17.30;58.60
68433;DHT22;55412;51.350;17.056;2022-09-20T13:25:04;17.30;59.70
68433;DHT22;55412;51.350;17.056;2022-09-20T13:27:39;17.40;60.10
68433;DHT22;55412;51.350;17.056;2022-09-20T13:30:21;17.40;60.30
68433;DHT22;55412;51.350;17.056;2022-09-20T13:32:50;17.50;59.10
68433;DHT22;55412;51.350;17.056;2022-09-20T13:35:21;17.60;59.30
68433;DHT22;55412;51.350;17.056;2022-09-20T13:38:04;17.60;58.30
68433;DHT22;55412;51.350;17.056;2022-09-20T13:43:11;17.50;58.10
68433;DHT22;55412;51.350;17.056;2022-09-20T13:45:41;17.40;57.50
68433;DHT22;55412;51.350;17.056;2022-09-20T13:48:08;17.40;57.80
68433;DHT22;55412;51.350;17.056;2022-09-20T13:50:34;17.30;57.80
68433;DHT22;55412;51.350;17.056;2022-09-20T13:53:14;17.30;56.80
68433;DHT22;55412;51.350;17.056;2022-09-20T13:55:43;17.20;56.90
68433;DHT22;55412;51.350;17.056;2022-09-20T13:58:31;17.10;56.50
68433;DHT22;55412;51.350;17.056;2022-09-20T14:01:01;17.00;56.00
68433;DHT22;55412;51.350;17.056;2022-09-20T14:03:32;16.90;56.50
68433;DHT22;55412;51.350;17.056;2022-09-20T14:06:11;16.80;56.20
68433;DHT22;55412;51.350;17.056;2022-09-20T14:08:45;16.70;57.00
68433;DHT22;55412;51.350;17.056;2022-09-20T14:11:22;16.60;57.30
68433;DHT22;55412;51.350;17.056;2022-09-20T14:14:02;16.60;58.10
68433;DHT22;55412;51.350;17.056;2022-09-20T14:16:32;16.60;57.60
68433;DHT22;55412;51.350;17.056;2022-09-20T14:19:02;16.60;57.80
68433;DHT22;55412;51.350;17.056;2022-09-20T14:21:34;16.60;56.10
68433;DHT22;55412;51.350;17.056;2022-09-20T14:24:34;16.50;56.50
68433;DHT22;55412;51.350;17.056;2022-09-20T14:27:14;16.50;57.90
68433;DHT22;55412;51.350;17.056;2022-09-20T14:34:46;16.50;56.50
68433;DHT22;55412;51.350;17.056;2022-09-20T14:37:40;16.60;57.40
68433;DHT22;55412;51.350;17.056;2022-09-20T14:40:41;16.60;58.30
68433;DHT22;55412;51.350;17.056;2022-09-20T14:43:25;16.60;57.90
68433;DHT22;55412;51.350;17.056;2022-09-20T14:45:58;16.70;57.40
68433;DHT22;55412;51.350;17.056;2022-09-20T14:48:37;16.70;54.80
68433;DHT22;55412;51.350;17.056;2022-09-20T14:53:45;16.70;55.00
68433;DHT22;55412;51.350;17.056;2022-09-20T14:56:36;16.70;54.70
68433;DHT22;55412;51.350;17.056;2022-09-20T15:01:40;16.60;55.60
68433;DHT22;55412;51.350;17.056;2022-09-20T15:04:20;16.50;55.80
68433;DHT22;55412;51.350;17.056;2022-09-20T15:06:48;16.40;55.80
68433;DHT22;55412;51.350;17.056;2022-09-20T15:09:15;16.40;55.90
68433;DHT22;55412;51.350;17.056;2022-09-20T15:11:43;16.30;56.60
68433;DHT22;55412;51.350;17.056;2022-09-20T15:14:09;16.30;56.20
68433;DHT22;55412;51.350;17.056;2022-09-20T15:16:35;16.20;56.40
68433;DHT22;55412;51.350;17.056;2022-09-20T15:19:01;16.20;55.60
68433;DHT22;55412;51.350;17.056;2022-09-20T15:21:30;16.10;55.80
68433;DHT22;55412;51.350;17.056;2022-09-20T15:23:56;16.10;56.00
68433;DHT22;55412;51.350;17.056;2022-09-20T15:26:22;16.00;56.60
68433;DHT22;55412;51.350;17.056;2022-09-20T15:28:48;16.00;57.10
68433;DHT22;55412;51.350;17.056;2022-09-20T15:31:14;15.90;57.30
68433;DHT22;55412;51.350;17.056;2022-09-20T15:33:42;15.90;57.70
68433;DHT22;55412;51.350;17.056;2022-09-20T15:36:08;15.80;57.80
68433;DHT22;55412;51.350;17.056;2022-09-20T15:38:34;15.80;58.20
68433;DHT22;55412;51.350;17.056;2022-09-20T15:41:01;15.70;58.30
68433;DHT22;55412;51.350;17.056;2022-09-20T15:43:32;15.60;59.00
68433;DHT22;55412;51.350;17.056;2022-09-20T15:46:00;15.60;59.10
68433;DHT22;55412;51.350;17.056;2022-09-20T15:48:44;15.50;59.40
68433;DHT22;55412;51.350;17.056;2022-09-20T15:51:11;15.50;59.80
68433;DHT22;55412;51.350;17.056;2022-09-20T15:53:44;15.40;60.30
68433;DHT22;55412;51.350;17.056;2022-09-20T15:56:20;15.30;60.70
68433;DHT22;55412;51.350;17.056;2022-09-20T15:58:49;15.30;61.30
68433;DHT22;55412;51.350;17.056;2022-09-20T16:01:17;15.30;61.70
68433;DHT22;55412;51.350;17.056;2022-09-20T16:03:45;15.30;61.60
68433;DHT22;55412;51.350;17.056;2022-09-20T16:06:12;15.20;61.10
68433;DHT22;55412;51.350;17.056;2022-09-20T16:08:39;15.10;61.90
68433;DHT22;55412;51.350;17.056;2022-09-20T16:11:11;15.10;62.60
68433;DHT22;55412;51.350;17.056;2022-09-20T16:13:38;15.00;62.80
68433;DHT22;55412;51.350;17.056;2022-09-20T16:16:06;15.00;63.30
68433;DHT22;55412;51.350;17.056;2022-09-20T16:18:34;15.00;63.40
68433;DHT22;55412;51.350;17.056;2022-09-20T16:21:20;14.90;63.50
68433;DHT22;55412;51.350;17.056;2022-09-20T16:23:52;14.90;63.30
68433;DHT22;55412;51.350;17.056;2022-09-20T16:26:21;14.80;63.40
68433;DHT22;55412;51.350;17.056;2022-09-20T16:28:49;14.70;63.70
68433;DHT22;55412;51.350;17.056;2022-09-20T16:31:38;14.70;64.00
68433;DHT22;55412;51.350;17.056;2022-09-20T16:36:58;14.60;64.70
68433;DHT22;55412;51.350;17.056;2022-09-20T16:39:33;14.50;64.10
68433;DHT22;55412;51.350;17.056;2022-09-20T16:42:06;14.40;63.20
68433;DHT22;55412;51.350;17.056;2022-09-20T16:44:38;14.40;63.00
68433;DHT22;55412;51.350;17.056;2022-09-20T16:47:09;14.30;63.00
68433;DHT22;55412;51.350;17.056;2022-09-20T16:49:37;14.30;62.80
68433;DHT22;55412;51.350;17.056;2022-09-20T16:52:05;14.20;62.40
68433;DHT22;55412;51.350;17.056;2022-09-20T16:54:32;14.10;63.30
68433;DHT22;55412;51.350;17.056;2022-09-20T16:56:58;14.10;63.90
68433;DHT22;55412;51.350;17.056;2022-09-20T16:59:24;14.10;64.00
68433;DHT22;55412;51.350;17.056;2022-09-20T17:01:50;14.10;64.00
68433;DHT22;55412;51.350;17.056;2022-09-20T17:04:17;14.00;64.00
68433;DHT22;55412;51.350;17.056;2022-09-20T17:06:45;14.00;64.10
68433;DHT22;55412;51.350;17.056;2022-09-20T17:09:13;13.90;64.90
68433;DHT22;55412;51.350;17.056;2022-09-20T17:11:45;13.90;64.70
68433;DHT22;55412;51.350;17.056;2022-09-20T17:14:18;13.90;64.80
68433;DHT22;55412;51.350;17.056;2022-09-20T17:16:45;13.90;65.00
68433;DHT22;55412;51.350;17.056;2022-09-20T17:19:13;13.80;65.40
68433;DHT22;55412;51.350;17.056;2022-09-20T17:21:45;13.70;65.10
68433;DHT22;55412;51.350;17.056;2022-09-20T17:24:15;13.70;66.10
68433;DHT22;55412;51.350;17.056;2022-09-20T17:26:45;13.70;65.40
68433;DHT22;55412;51.350;17.056;2022-09-20T17:29:13;13.70;65.60
68433;DHT22;55412;51.350;17.056;2022-09-20T17:31:43;13.60;65.60
68433;DHT22;55412;51.350;17.056;2022-09-20T17:34:12;13.60;65.80
68433;DHT22;55412;51.350;17.056;2022-09-20T17:36:43;13.60;65.20
68433;DHT22;55412;51.350;17.056;2022-09-20T17:39:12;13.50;65.80
68433;DHT22;55412;51.350;17.056;2022-09-20T17:41:47;13.50;65.80
68433;DHT22;55412;51.350;17.056;2022-09-20T17:44:14;13.40;65.20
68433;DHT22;55412;51.350;17.056;2022-09-20T17:46:42;13.40;65.70
68433;DHT22;55412;51.350;17.056;2022-09-20T17:49:11;13.40;65.60
68433;DHT22;55412;51.350;17.056;2022-09-20T17:51:44;13.30;65.50
68433;DHT22;55412;51.350;17.056;2022-09-20T17:54:12;13.30;65.60
68433;DHT22;55412;51.350;17.056;2022-09-20T17:56:43;13.20;66.00
68433;DHT22;55412;51.350;17.056;2022-09-20T17:59:12;13.20;65.90
68433;DHT22;55412;51.350;17.056;2022-09-20T18:01:43;13.20;66.10
68433;DHT22;55412;51.350;17.056;2022-09-20T18:04:12;13.10;65.90
68433;DHT22;55412;51.350;17.056;2022-09-20T18:06:48;13.10;66.80
68433;DHT22;55412;51.350;17.056;2022-09-20T18:09:21;13.00;66.50
68433;DHT22;55412;51.350;17.056;2022-09-20T18:11:51;13.00;66.70
68433;DHT22;55412;51.350;17.056;2022-09-20T18:14:20;13.00;66.80
68433;DHT22;55412;51.350;17.056;2022-09-20T18:16:51;13.00;67.60
68433;DHT22;55412;51.350;17.056;2022-09-20T18:19:19;12.90;67.40
68433;DHT22;55412;51.350;17.056;2022-09-20T18:21:47;12.90;67.70
68433;DHT22;55412;51.350;17.056;2022-09-20T18:24:13;12.90;68.70
68433;DHT22;55412;51.350;17.056;2022-09-20T18:26:39;12.90;68.50
68433;DHT22;55412;51.350;17.056;2022-09-20T18:29:11;12.90;69.00
68433;DHT22;55412;51.350;17.056;2022-09-20T18:31:49;12.90;68.80
68433;DHT22;55412;51.350;17.056;2022-09-20T18:34:20;12.90;68.20
68433;DHT22;55412;51.350;17.056;2022-09-20T18:36:55;12.90;68.00
68433;DHT22;55412;51.350;17.056;2022-09-20T18:39:27;12.90;67.70
68433;DHT22;55412;51.350;17.056;2022-09-20T18:41:57;12.90;68.30
68433;DHT22;55412;51.350;17.056;2022-09-20T18:44:23;12.90;69.30
68433;DHT22;55412;51.350;17.056;2022-09-20T18:46:50;12.90;68.30
68433;DHT22;55412;51.350;17.056;2022-09-20T18:49:17;12.80;69.40
68433;DHT22;55412;51.350;17.056;2022-09-20T18:51:45;12.80;68.60
68433;DHT22;55412;51.350;17.056;2022-09-20T18:54:13;12.80;68.70
68433;DHT22;55412;51.350;17.056;2022-09-20T18:56:41;12.80;68.50
68433;DHT22;55412;51.350;17.056;2022-09-20T18:59:22;12.70;68.80
68433;DHT22;55412;51.350;17.056;2022-09-20T19:07:40;12.70;68.40
68433;DHT22;55412;51.350;17.056;2022-09-20T19:13:24;12.60;68.30
68433;DHT22;55412;51.350;17.056;2022-09-20T19:16:19;12.60;69.60
68433;DHT22;55412;51.350;17.056;2022-09-20T19:25:24;12.50;68.20
68433;DHT22;55412;51.350;17.056;2022-09-20T19:28:04;12.50;68.90
68433;DHT22;55412;51.350;17.056;2022-09-20T19:30:30;12.50;69.40
68433;DHT22;55412;51.350;17.056;2022-09-20T19:32:57;12.50;69.50
68433;DHT22;55412;51.350;17.056;2022-09-20T19:35:28;12.50;69.20
68433;DHT22;55412;51.350;17.056;2022-09-20T19:47:56;12.40;70.00
68433;DHT22;55412;51.350;17.056;2022-09-20T19:52:53;12.40;70.20
68433;DHT22;55412;51.350;17.056;2022-09-20T19:55:23;12.30;70.00
68433;DHT22;55412;51.350;17.056;2022-09-20T19:57:49;12.30;69.80
68433;DHT22;55412;51.350;17.056;2022-09-20T20:00:20;12.30;69.80
68433;DHT22;55412;51.350;17.056;2022-09-20T20:02:46;12.30;69.50
68433;DHT22;55412;51.350;17.056;2022-09-20T20:05:15;12.30;69.30
68433;DHT22;55412;51.350;17.056;2022-09-20T20:07:57;12.30;70.00
68433;DHT22;55412;51.350;17.056;2022-09-20T20:10:47;12.30;69.60
68433;DHT22;55412;51.350;17.056;2022-09-20T20:13:43;12.30;69.60
68433;DHT22;55412;51.350;17.056;2022-09-20T20:20:09;12.20;71.00
68433;DHT22;55412;51.350;17.056;2022-09-20T20:26:07;12.20;71.20
68433;DHT22;55412;51.350;17.056;2022-09-20T20:28:35;12.20;70.70
68433;DHT22;55412;51.350;17.056;2022-09-20T20:31:02;12.10;70.00
68433;DHT22;55412;51.350;17.056;2022-09-20T20:33:29;12.10;70.90
68433;DHT22;55412;51.350;17.056;2022-09-20T20:35:59;12.10;70.30
68433;DHT22;55412;51.350;17.056;2022-09-20T20:38:27;12.10;71.20
68433;DHT22;55412;51.350;17.056;2022-09-20T20:41:02;12.10;71.20
68433;DHT22;55412;51.350;17.056;2022-09-20T20:43:31;12.10;71.60
68433;DHT22;55412;51.350;17.056;2022-09-20T20:45:59;12.10;70.80
68433;DHT22;55412;51.350;17.056;2022-09-20T20:48:26;12.10;70.60
68433;DHT22;55412;51.350;17.056;2022-09-20T20:51:03;12.10;70.40
68433;DHT22;55412;51.350;17.056;2022-09-20T20:53:45;12.00;70.60
68433;DHT22;55412;51.350;17.056;2022-09-20T20:58:54;12.00;70.80
68433;DHT22;55412;51.350;17.056;2022-09-20T21:03:55;11.90;71.30
68433;DHT22;55412;51.350;17.056;2022-09-20T21:06:25;11.90;71.10
68433;DHT22;55412;51.350;17.056;2022-09-20T21:08:52;11.90;72.00
68433;DHT22;55412;51.350;17.056;2022-09-20T21:11:24;11.90;71.70
68433;DHT22;55412;51.350;17.056;2022-09-20T21:13:56;11.90;71.90
68433;DHT22;55412;51.350;17.056;2022-09-20T21:16:25;11.90;72.50
68433;DHT22;55412;51.350;17.056;2022-09-20T21:18:54;11.90;71.90
68433;DHT22;55412;51.350;17.056;2022-09-20T21:21:29;11.90;71.60
68433;DHT22;55412;51.350;17.056;2022-09-20T21:24:01;11.90;72.10
68433;DHT22;55412;51.350;17.056;2022-09-20T21:26:30;11.90;71.30
68433;DHT22;55412;51.350;17.056;2022-09-20T21:29:02;11.90;72.60
68433;DHT22;55412;51.350;17.056;2022-09-20T21:31:31;11.90;72.10
68433;DHT22;55412;51.350;17.056;2022-09-20T21:34:00;11.80;71.80